Time,TemperatureF,DewpointF,PressureIn,WindDirection,WindDirectionDegrees,WindSpeedMPH,WindSpeedGustMPH,Humidity,HourlyPrecipIn,Conditions,Clouds,dailyrainin,SoftwareType,DateUTC
2013-03-09 00:01:00,36.8,30.3,30.38,SE,144,0.0,0.0,77,0.00,CLR,,0.00,WeatherDisplay:10.37,2013-03-09 06:01:00,
2013-03-09 00:06:00,36.9,30.7,30.38,SE,144,0.0,0.0,78,0.00,CLR,,0.00,WeatherDisplay:10.37,2013-03-09 06:06:00,
2013-03-09 00:11:00,36.9,30.7,30.38,SE,144,0.0,0.0,78,0.00,CLR,,0.00,WeatherDisplay:10.37,2013-03-09 06:11:00,
2013-03-09 00:16:00,36.9,30.7,30.38,SE,144,0.0,0.0,78,0.00,CLR,,0.00,WeatherDisplay:10.37,2013-03-09 06:16:00,
2013-03-09 00:21:00,37.0,30.8,30.38,SE,144,0.0,0.0,78,0.00,CLR,,0.00,WeatherDisplay:10.37,2013-03-09 06:21:00,
2013-03-09 00:26:00,37.0,30.8,30.38,SE,144,0.0,0.0,78,0.00,CLR,,0.00,WeatherDisplay:10.37,2013-03-09 06:26:00,
2013-03-09 00:31:00,37.0,30.8,30.38,SE,144,0.0,0.0,78,0.00,CLR,,0.00,WeatherDisplay:10.37,2013-03-09 06:31:00,
2013-03-09 00:36:00,36.9,30.4,30.38,SE,144,0.0,0.0,77,0.00,CLR,,0.00,WeatherDisplay:10.37,2013-03-09 06:36:00,
2013-03-09 00:41:00,36.8,30.3,30.38,SE,144,0.0,0.0,77,0.00,CLR,,0.00,WeatherDisplay:10.37,2013-03-09 06:41:00,
2013-03-09 00:46:00,36.6,30.4,30.38,SE,144,0.0,0.0,78,0.00,CLR,,0.00,WeatherDisplay:10.37,2013-03-09 06:46:00,
2013-03-09 00:51:00,36.6,30.4,30.38,SE,144,0.0,0.0,78,0.00,CLR,,0.00,WeatherDisplay:10.37,2013-03-09 06:51:00,
2013-03-09 00:56:00,36.5,30.3,30.37,SE,144,0.0,0.0,78,0.00,CLR,,0.00,WeatherDisplay:10.37,2013-03-09 06:56:00,
2013-03-09 01:01:00,36.5,30.6,30.38,SE,144,0.0,0.0,79,0.00,CLR,,0.00,WeatherDisplay:10.37,2013-03-09 07:01:00,
2013-03-09 01:06:00,36.6,30.4,30.37,SE,144,0.0,0.0,78,0.00,CLR,,0.00,WeatherDisplay:10.37,2013-03-09 07:06:00,
2013-03-09 01:11:00,36.8,30.6,30.37,SE,144,0.0,0.0,78,0.00,CLR,,0.00,WeatherDisplay:10.37,2013-03-09 07:11:00,
2013-03-09 01:16:00,36.9,30.7,30.36,SE,144,0.0,0.0,78,0.00,CLR,,0.00,WeatherDisplay:10.37,2013-03-09 07:16:00,
2013-03-09 01:21:00,36.8,30.6,30.36,SE,144,0.0,0.2,78,0.00,CLR,,0.00,WeatherDisplay:10.37,2013-03-09 07:21:00,
2013-03-09 01:26:00,36.8,30.6,30.36,SE,144,0.0,0.0,78,0.00,CLR,,0.00,WeatherDisplay:10.37,2013-03-09 07:26:00,
2013-03-09 01:31:00,36.6,30.4,30.36,SE,144,0.0,0.0,78,0.00,CLR,,0.00,WeatherDisplay:10.37,2013-03-09 07:31:00,
2013-03-09 01:36:00,36.5,30.3,30.36,SE,144,0.0,0.0,78,0.00,CLR,,0.00,WeatherDisplay:10.37,2013-03-09 07:36:00,
2013-03-09 01:41:00,36.5,30.3,30.36,SE,144,0.0,0.0,78,0.00,CLR,,0.00,WeatherDisplay:10.37,2013-03-09 07:41:00,
2013-03-09 01:46:00,36.5,30.3,30.36,SE,144,0.0,0.0,78,0.00,CLR,,0.00,WeatherDisplay:10.37,2013-03-09 07:46:00,
2013-03-09 01:51:00,36.6,30.7,30.36,SE,144,0.0,0.0,79,0.00,CLR,,0.00,WeatherDisplay:10.37,2013-03-09 07:51:00,
2013-03-09 01:56:00,36.6,30.4,30.36,SE,144,0.0,0.0,78,0.00,CLR,,0.00,WeatherDisplay:10.37,2013-03-09 07:56:00,
2013-03-09 02:01:00,36.8,30.3,30.36,SE,144,0.0,0.0,77,0.00,CLR,,0.00,WeatherDisplay:10.37,2013-03-09 08:01:00,
2013-03-09 02:06:00,37.0,29.8,30.35,SE,144,0.0,0.0,75,0.00,CLR,,0.00,WeatherDisplay:10.37,2013-03-09 08:06:00,
2013-03-09 02:11:00,37.5,30.0,30.35,SE,144,0.0,0.0,74,0.00,CLR,,0.00,WeatherDisplay:10.37,2013-03-09 08:11:00,
2013-03-09 02:16:00,37.6,29.7,30.34,SE,144,0.0,0.0,73,0.00,CLR,,0.00,WeatherDisplay:10.37,2013-03-09 08:16:00,
2013-03-09 02:21:00,38.0,29.8,30.34,SE,144,0.0,0.0,72,0.00,CLR,,0.00,WeatherDisplay:10.37,2013-03-09 08:21:00,
2013-03-09 02:26:00,38.2,29.6,30.34,SE,144,0.0,0.0,71,0.00,CLR,,0.00,WeatherDisplay:10.37,2013-03-09 08:26:00,
2013-03-09 02:31:00,38.5,29.6,30.34,SE,144,0.0,0.0,70,0.00,CLR,,0.00,WeatherDisplay:10.37,2013-03-09 08:31:00,
2013-03-09 02:36:00,38.8,29.5,30.34,ESE,106,0.0,0.0,69,0.00,CLR,,0.00,WeatherDisplay:10.37,2013-03-09 08:36:00,
2013-03-09 02:41:00,39.3,29.3,30.34,NNE,14,0.0,0.0,67,0.00,CLR,,0.00,WeatherDisplay:10.37,2013-03-09 08:41:00,
2013-03-09 02:46:00,40.1,29.3,30.34,NNE,14,0.0,0.0,65,0.00,CLR,,0.00,WeatherDisplay:10.37,2013-03-09 08:46:00,
2013-03-09 02:51:00,40.5,29.3,30.34,NNE,14,0.0,0.2,64,0.00,CLR,,0.00,WeatherDisplay:10.37,2013-03-09 08:51:00,
2013-03-09 02:56:00,40.8,29.2,30.34,NNE,14,0.0,0.0,63,0.00,CLR,,0.00,WeatherDisplay:10.37,2013-03-09 08:56:00,
2013-03-09 03:01:00,41.1,29.1,30.34,NNE,14,1.1,0.0,62,0.00,CLR,,0.00,WeatherDisplay:10.37,2013-03-09 09:01:00,
2013-03-09 03:06:00,41.2,29.2,30.34,NNE,14,0.0,0.0,62,0.00,CLR,,0.00,WeatherDisplay:10.37,2013-03-09 09:06:00,
2013-03-09 03:11:00,41.3,28.9,30.34,NNE,14,1.1,0.0,61,0.00,CLR,,0.00,WeatherDisplay:10.37,2013-03-09 09:11:00,
2013-03-09 03:16:00,41.5,29.0,30.34,NNE,14,0.0,0.0,61,0.00,CLR,,0.00,WeatherDisplay:10.37,2013-03-09 09:16:00,
2013-03-09 03:21:00,41.5,30.2,30.34,NNE,14,0.0,0.0,64,0.00,CLR,,0.00,WeatherDisplay:10.37,2013-03-09 09:21:00,
2013-03-09 03:26:00,41.3,30.4,30.34,NNE,14,0.0,0.0,65,0.00,CLR,,0.00,WeatherDisplay:10.37,2013-03-09 09:26:00,
2013-03-09 03:31:00,41.1,31.7,30.35,NNE,14,0.0,0.0,69,0.00,CLR,,0.00,WeatherDisplay:10.37,2013-03-09 09:31:00,
2013-03-09 03:36:00,40.5,31.8,30.34,NNE,14,1.1,0.0,71,0.00,CLR,,0.00,WeatherDisplay:10.37,2013-03-09 09:36:00,
2013-03-09 03:41:00,40.2,31.9,30.34,NNE,14,0.0,0.0,72,0.00,CLR,,0.00,WeatherDisplay:10.37,2013-03-09 09:41:00,
2013-03-09 03:46:00,39.9,31.9,30.34,NNE,14,0.0,0.0,73,0.00,CLR,,0.00,WeatherDisplay:10.37,2013-03-09 09:46:00,
2013-03-09 03:51:00,39.6,31.7,30.34,NNE,14,0.0,0.0,73,0.00,CLR,,0.00,WeatherDisplay:10.37,2013-03-09 09:51:00,
2013-03-09 03:56:00,39.5,31.6,30.34,NNE,14,0.0,0.0,73,0.00,CLR,,0.00,WeatherDisplay:10.37,2013-03-09 09:56:00,
2013-03-09 04:01:00,39.3,31.4,30.35,NNE,14,0.0,0.0,73,0.00,CLR,,0.00,WeatherDisplay:10.37,2013-03-09 10:01:00,
2013-03-09 04:06:00,39.3,31.4,30.35,NNE,14,0.0,0.0,73,0.00,CLR,,0.00,WeatherDisplay:10.37,2013-03-09 10:06:00,
2013-03-09 04:12:00,39.2,31.3,30.35,NNE,14,0.0,0.0,73,0.00,CLR,,0.00,WeatherDisplay:10.37,2013-03-09 10:12:00,
2013-03-09 04:17:00,39.3,31.0,30.36,NNE,14,0.0,0.0,72,0.00,CLR,,0.00,WeatherDisplay:10.37,2013-03-09 10:17:00,
2013-03-09 04:22:00,39.3,30.7,30.36,NNE,14,0.0,0.0,71,0.00,CLR,,0.00,WeatherDisplay:10.37,2013-03-09 10:22:00,
2013-03-09 04:27:00,39.3,31.0,30.36,NNE,14,0.0,0.0,72,0.00,CLR,,0.00,WeatherDisplay:10.37,2013-03-09 10:27:00,
2013-03-09 04:32:00,39.3,31.4,30.36,NNE,14,0.0,0.0,73,0.00,CLR,,0.00,WeatherDisplay:10.37,2013-03-09 10:32:00,
2013-03-09 04:37:00,39.2,31.3,30.37,NNE,14,0.0,0.0,73,0.00,CLR,,0.00,WeatherDisplay:10.37,2013-03-09 10:37:00,
2013-03-09 04:42:00,39.2,31.3,30.37,NNE,14,0.0,0.0,73,0.00,CLR,,0.00,WeatherDisplay:10.37,2013-03-09 10:42:00,
2013-03-09 04:47:00,39.2,31.3,30.37,NNE,14,0.0,0.0,73,0.00,CLR,,0.00,WeatherDisplay:10.37,2013-03-09 10:47:00,
2013-03-09 04:52:00,39.2,31.3,30.38,NNE,14,0.0,0.0,73,0.00,CLR,,0.00,WeatherDisplay:10.37,2013-03-09 10:52:00,
2013-03-09 04:57:00,39.2,31.3,30.38,NNE,14,0.0,0.0,73,0.00,CLR,,0.00,WeatherDisplay:10.37,2013-03-09 10:57:00,
2013-03-09 05:02:00,39.1,31.2,30.38,NNE,14,0.0,0.0,73,0.00,CLR,,0.00,WeatherDisplay:10.37,2013-03-09 11:02:00,
2013-03-09 05:07:00,39.1,31.2,30.38,NNE,14,0.0,0.0,73,0.00,CLR,,0.00,WeatherDisplay:10.37,2013-03-09 11:07:00,
2013-03-09 05:12:00,38.9,31.3,30.38,NNE,14,0.0,0.0,74,0.00,CLR,,0.00,WeatherDisplay:10.37,2013-03-09 11:12:00,
2013-03-09 05:17:00,38.9,31.3,30.39,NNE,14,0.0,0.0,74,0.00,CLR,,0.00,WeatherDisplay:10.37,2013-03-09 11:17:00,
2013-03-09 05:22:00,38.9,31.0,30.39,NNE,14,0.0,0.0,73,0.00,CLR,,0.00,WeatherDisplay:10.37,2013-03-09 11:22:00,
2013-03-09 05:27:00,38.8,30.9,30.39,NNE,14,0.0,0.0,73,0.00,CLR,,0.00,WeatherDisplay:10.37,2013-03-09 11:27:00,
2013-03-09 05:32:00,38.8,30.5,30.39,NNE,14,0.0,0.0,72,0.00,CLR,,0.00,WeatherDisplay:10.37,2013-03-09 11:32:00,
2013-03-09 05:37:00,38.8,30.2,30.39,NNE,14,0.0,0.0,71,0.00,CLR,,0.00,WeatherDisplay:10.37,2013-03-09 11:37:00,
2013-03-09 05:42:00,38.8,30.2,30.39,NNE,14,0.0,0.0,71,0.00,CLR,,0.00,WeatherDisplay:10.37,2013-03-09 11:42:00,
2013-03-09 05:47:00,38.8,30.2,30.40,NNE,14,0.0,0.0,71,0.00,CLR,,0.00,WeatherDisplay:10.37,2013-03-09 11:47:00,
2013-03-09 05:52:00,38.9,30.3,30.39,NNE,14,0.0,0.0,71,0.00,CLR,,0.00,WeatherDisplay:10.37,2013-03-09 11:52:00,
2013-03-09 05:57:00,38.9,30.6,30.40,NNE,14,0.0,0.0,72,0.00,CLR,,0.00,WeatherDisplay:10.37,2013-03-09 11:57:00,
2013-03-09 06:02:00,38.9,30.6,30.39,NNE,14,0.0,0.0,72,0.00,CLR,,0.00,WeatherDisplay:10.37,2013-03-09 12:02:00,
2013-03-09 06:07:00,38.9,30.6,30.40,NNE,14,0.0,0.0,72,0.00,CLR,,0.00,WeatherDisplay:10.37,2013-03-09 12:07:00,
2013-03-09 06:12:00,38.9,30.6,30.40,NNE,14,0.0,0.0,72,0.00,CLR,,0.00,WeatherDisplay:10.37,2013-03-09 12:12:00,
2013-03-09 06:17:00,38.9,31.0,30.40,NNE,14,0.0,0.0,73,0.00,CLR,,0.00,WeatherDisplay:10.37,2013-03-09 12:17:00,
2013-03-09 06:22:00,39.1,29.8,30.40,NNE,14,0.0,0.0,69,0.00,CLR,,0.00,WeatherDisplay:10.37,2013-03-09 12:22:00,
2013-03-09 06:27:00,39.3,29.6,30.40,NNE,14,0.0,0.0,68,0.00,CLR,,0.00,WeatherDisplay:10.37,2013-03-09 12:27:00,
2013-03-09 06:32:00,39.6,29.2,30.40,NNE,14,0.0,0.0,66,0.00,CLR,,0.00,WeatherDisplay:10.37,2013-03-09 12:32:00,
2013-03-09 06:37:00,39.8,29.7,30.40,NNE,14,0.0,0.0,67,0.00,CLR,,0.00,WeatherDisplay:10.37,2013-03-09 12:37:00,
2013-03-09 06:42:00,39.9,30.5,30.40,NNE,14,0.0,0.0,69,0.00,CLR,,0.00,WeatherDisplay:10.37,2013-03-09 12:42:00,
2013-03-09 06:47:00,39.8,31.2,30.40,NNE,14,0.0,0.0,71,0.00,CLR,,0.00,WeatherDisplay:10.37,2013-03-09 12:47:00,
2013-03-09 06:52:00,39.6,31.0,30.41,NNE,14,0.0,0.0,71,0.00,CLR,,0.00,WeatherDisplay:10.37,2013-03-09 12:52:00,
2013-03-09 06:57:00,39.5,30.5,30.42,NNE,14,0.0,0.0,70,0.00,CLR,,0.00,WeatherDisplay:10.37,2013-03-09 12:57:00,
2013-03-09 07:02:00,39.9,30.9,30.42,NNE,14,0.0,0.0,70,0.00,CLR,,0.00,WeatherDisplay:10.37,2013-03-09 13:02:00,
2013-03-09 07:07:00,40.8,31.8,30.41,NNE,14,0.0,0.0,70,0.00,CLR,,0.00,WeatherDisplay:10.37,2013-03-09 13:07:00,
2013-03-09 07:12:00,41.3,32.6,30.41,NNE,14,1.1,0.0,71,0.00,CLR,,0.00,WeatherDisplay:10.37,2013-03-09 13:12:00,
2013-03-09 07:17:00,41.9,32.1,30.41,NNE,14,1.1,0.0,68,0.00,CLR,,0.00,WeatherDisplay:10.37,2013-03-09 13:17:00,
2013-03-09 07:22:00,42.5,33.0,30.40,NNE,14,0.0,0.0,69,0.00,CLR,,0.00,WeatherDisplay:10.37,2013-03-09 13:22:00,
2013-03-09 07:27:00,43.5,34.0,30.40,NNE,14,0.0,0.0,69,0.00,CLR,,0.00,WeatherDisplay:10.37,2013-03-09 13:27:00,
2013-03-09 07:32:00,44.5,32.3,30.40,NNE,14,0.0,0.0,62,0.00,CLR,,0.00,WeatherDisplay:10.37,2013-03-09 13:32:00,
2013-03-09 07:37:00,45.7,32.2,30.40,NNE,14,0.0,0.0,59,0.00,CLR,,0.00,WeatherDisplay:10.37,2013-03-09 13:37:00,
2013-03-09 07:42:00,46.7,31.8,30.40,NNE,14,1.1,1.1,56,0.00,CLR,,0.00,WeatherDisplay:10.37,2013-03-09 13:42:00,
2013-03-09 07:47:00,47.6,31.8,30.40,NNE,14,0.0,0.0,54,0.00,CLR,,0.00,WeatherDisplay:10.37,2013-03-09 13:47:00,
2013-03-09 07:52:00,48.2,30.9,30.40,NE,43,3.5,3.5,51,0.00,CLR,,0.00,WeatherDisplay:10.37,2013-03-09 13:52:00,
2013-03-09 07:57:00,48.5,31.2,30.39,NE,43,2.3,0.0,51,0.00,CLR,,0.00,WeatherDisplay:10.37,2013-03-09 13:57:00,
2013-03-09 08:02:00,48.6,31.8,30.39,ENE,59,1.1,0.0,52,0.00,CLR,,0.00,WeatherDisplay:10.37,2013-03-09 14:02:00,
2013-03-09 08:07:00,49.1,30.2,30.39,NNE,28,1.1,1.1,48,0.00,CLR,,0.00,WeatherDisplay:10.37,2013-03-09 14:07:00,
2013-03-09 08:12:00,49.5,29.6,30.38,NNE,28,2.3,2.3,46,0.00,CLR,,0.00,WeatherDisplay:10.37,2013-03-09 14:12:00,
2013-03-09 08:17:00,50.1,29.6,30.38,NW,326,3.5,3.5,45,0.00,CLR,,0.00,WeatherDisplay:10.37,2013-03-09 14:17:00,
2013-03-09 08:22:00,50.5,29.4,30.39,NNW,333,1.1,0.0,44,0.00,CLR,,0.00,WeatherDisplay:10.37,2013-03-09 14:22:00,
2013-03-09 08:27:00,51.1,28.2,30.39,NNW,336,1.1,1.1,41,0.00,CLR,,0.00,WeatherDisplay:10.37,2013-03-09 14:27:00,
2013-03-09 08:32:00,51.4,27.9,30.39,NE,49,0.0,0.0,40,0.00,CLR,,0.00,WeatherDisplay:10.37,2013-03-09 14:32:00,
2013-03-09 08:37:00,51.9,30.1,30.38,NE,49,0.0,0.0,43,0.00,CLR,,0.00,WeatherDisplay:10.37,2013-03-09 14:37:00,
2013-03-09 08:42:00,52.2,28.6,30.39,NE,49,1.1,0.0,40,0.00,CLR,,0.00,WeatherDisplay:10.37,2013-03-09 14:42:00,
2013-03-09 08:47:00,52.5,30.0,30.39,North,350,1.1,0.0,42,0.00,CLR,,0.00,WeatherDisplay:10.37,2013-03-09 14:47:00,
2013-03-09 08:52:00,52.9,28.6,30.39,North,350,1.1,0.0,39,0.00,CLR,,0.00,WeatherDisplay:10.37,2013-03-09 14:52:00,
2013-03-09 08:57:00,53.3,29.6,30.38,ESE,123,1.1,0.0,40,0.00,CLR,,0.00,WeatherDisplay:10.37,2013-03-09 14:57:00,
2013-03-09 09:02:00,53.8,30.6,30.38,NE,42,1.1,1.1,41,0.00,CLR,,0.00,WeatherDisplay:10.37,2013-03-09 15:02:00,
2013-03-09 09:07:00,54.1,28.4,30.38,NNE,31,1.1,1.1,37,0.00,CLR,,0.00,WeatherDisplay:10.37,2013-03-09 15:07:00,
2013-03-09 09:12:00,54.4,28.6,30.38,NNE,31,0.0,0.0,37,0.00,CLR,,0.00,WeatherDisplay:10.37,2013-03-09 15:12:00,
2013-03-09 09:17:00,54.2,28.5,30.38,NNE,31,0.0,0.0,37,0.00,CLR,,0.00,WeatherDisplay:10.37,2013-03-09 15:17:00,
2013-03-09 09:22:00,54.1,29.7,30.39,NNW,340,1.1,0.0,39,0.00,CLR,,0.00,WeatherDisplay:10.37,2013-03-09 15:22:00,
2013-03-09 09:27:00,53.9,28.8,30.39,NNW,340,0.0,0.0,38,0.00,CLR,,0.00,WeatherDisplay:10.37,2013-03-09 15:27:00,
2013-03-09 09:32:00,53.9,29.5,30.40,NNW,340,1.1,1.1,39,0.00,CLR,,0.00,WeatherDisplay:10.37,2013-03-09 15:32:00,
2013-03-09 09:37:00,54.2,29.8,30.40,NNW,340,0.0,0.0,39,0.00,CLR,,0.00,WeatherDisplay:10.37,2013-03-09 15:37:00,
2013-03-09 09:42:00,54.8,31.5,30.40,NNW,340,1.1,0.0,41,0.00,CLR,,0.00,WeatherDisplay:10.37,2013-03-09 15:42:00,
2013-03-09 09:47:00,55.4,32.1,30.39,NNE,13,1.1,1.1,41,0.00,CLR,,0.00,WeatherDisplay:10.37,2013-03-09 15:47:00,
2013-03-09 09:52:00,55.6,28.4,30.39,NNE,13,2.3,0.0,35,0.00,CLR,,0.00,WeatherDisplay:10.37,2013-03-09 15:52:00,
2013-03-09 09:57:00,55.7,27.7,30.39,NNE,13,1.1,0.0,34,0.00,CLR,,0.00,WeatherDisplay:10.37,2013-03-09 15:57:00,
2013-03-09 10:02:00,55.9,27.9,30.39,NNE,13,0.0,0.0,34,0.00,CLR,,0.00,WeatherDisplay:10.37,2013-03-09 16:02:00,
2013-03-09 10:07:00,56.3,27.5,30.38,NE,38,3.5,3.5,33,0.00,CLR,,0.00,WeatherDisplay:10.37,2013-03-09 16:07:00,
2013-03-09 10:12:00,56.5,29.1,30.38,ENE,72,0.0,0.0,35,0.00,CLR,,0.00,WeatherDisplay:10.37,2013-03-09 16:12:00,
2013-03-09 10:17:00,56.9,29.5,30.38,ENE,72,0.0,0.0,35,0.00,CLR,,0.00,WeatherDisplay:10.37,2013-03-09 16:17:00,
2013-03-09 10:22:00,57.2,31.8,30.37,NNE,27,0.0,0.0,38,0.00,CLR,,0.00,WeatherDisplay:10.37,2013-03-09 16:22:00,
2013-03-09 10:27:00,57.3,27.7,30.36,East,84,2.3,0.0,32,0.00,CLR,,0.00,WeatherDisplay:10.37,2013-03-09 16:27:00,
2013-03-09 10:32:00,57.3,28.4,30.36,East,84,1.1,0.0,33,0.00,CLR,,0.00,WeatherDisplay:10.37,2013-03-09 16:32:00,
2013-03-09 10:37:00,57.8,30.3,30.36,East,100,3.5,3.5,35,0.00,CLR,,0.00,WeatherDisplay:10.37,2013-03-09 16:37:00,
2013-03-09 10:42:00,58.3,29.3,30.36,East,100,1.1,0.0,33,0.00,CLR,,0.00,WeatherDisplay:10.37,2013-03-09 16:42:00,
2013-03-09 10:47:00,58.6,29.6,30.35,East,100,1.1,0.0,33,0.00,CLR,,0.00,WeatherDisplay:10.37,2013-03-09 16:47:00,
2013-03-09 10:52:00,59.0,31.4,30.35,East,100,0.0,0.0,35,0.00,CLR,,0.00,WeatherDisplay:10.37,2013-03-09 16:52:00,
2013-03-09 10:57:00,59.5,31.1,30.35,East,101,0.0,0.0,34,0.00,CLR,,0.00,WeatherDisplay:10.37,2013-03-09 16:57:00,
2013-03-09 11:02:00,59.5,31.1,30.35,SSW,207,0.0,0.0,34,0.00,CLR,,0.00,WeatherDisplay:10.37,2013-03-09 17:02:00,
2013-03-09 11:07:00,59.8,29.1,30.35,East,82,1.1,0.0,31,0.00,CLR,,0.00,WeatherDisplay:10.37,2013-03-09 17:07:00,
2013-03-09 11:12:00,59.5,28.0,30.35,East,82,1.1,0.0,30,0.00,CLR,,0.00,WeatherDisplay:10.37,2013-03-09 17:12:00,
2013-03-09 11:17:00,59.6,31.2,30.35,NNE,22,2.3,0.0,34,0.00,CLR,,0.00,WeatherDisplay:10.37,2013-03-09 17:17:00,
2013-03-09 11:22:00,59.6,30.4,30.35,North,10,2.0,2.0,33,0.00,CLR,,0.00,WeatherDisplay:10.37,2013-03-09 17:22:00,
2013-03-09 11:27:00,59.6,31.9,30.35,North,11,0.0,0.0,35,0.00,CLR,,0.00,WeatherDisplay:10.37,2013-03-09 17:27:00,
2013-03-09 11:32:00,59.6,31.2,30.35,North,9,0.0,0.0,34,0.00,CLR,,0.00,WeatherDisplay:10.37,2013-03-09 17:32:00,
2013-03-09 11:37:00,59.6,28.9,30.35,North,9,0.0,0.0,31,0.00,CLR,,0.00,WeatherDisplay:10.37,2013-03-09 17:37:00,
2013-03-09 11:42:00,59.8,30.6,30.35,North,9,1.1,0.0,33,0.00,CLR,,0.00,WeatherDisplay:10.37,2013-03-09 17:42:00,
2013-03-09 11:47:00,59.9,31.4,30.35,North,9,1.0,1.0,34,0.00,CLR,,0.00,WeatherDisplay:10.37,2013-03-09 17:47:00,
2013-03-09 11:52:00,60.2,28.6,30.35,North,9,0.0,0.0,30,0.00,CLR,,0.00,WeatherDisplay:10.37,2013-03-09 17:52:00,
2013-03-09 11:57:00,60.4,28.0,30.34,North,9,0.0,0.0,29,0.00,CLR,,0.00,WeatherDisplay:10.37,2013-03-09 17:57:00,
2013-03-09 12:02:00,60.4,29.6,30.34,North,9,0.0,0.0,31,0.00,CLR,,0.00,WeatherDisplay:10.37,2013-03-09 18:02:00,
2013-03-09 12:07:00,60.9,30.8,30.33,North,9,0.0,0.1,32,0.00,CLR,,0.00,WeatherDisplay:10.37,2013-03-09 18:07:00,
2013-03-09 12:12:00,61.0,29.3,30.33,ESE,118,3.5,3.5,30,0.00,CLR,,0.00,WeatherDisplay:10.37,2013-03-09 18:12:00,
2013-03-09 12:17:00,60.9,29.2,30.33,SE,134,0.0,0.0,30,0.00,CLR,,0.00,WeatherDisplay:10.37,2013-03-09 18:17:00,
2013-03-09 12:22:00,61.3,29.6,30.33,South,176,3.5,0.0,30,0.00,CLR,,0.00,WeatherDisplay:10.37,2013-03-09 18:22:00,
2013-03-09 12:27:00,61.8,30.0,30.32,SE,138,1.0,1.0,30,0.00,CLR,,0.00,WeatherDisplay:10.37,2013-03-09 18:27:00,
2013-03-09 12:32:00,62.7,32.4,30.32,WSW,251,1.1,1.1,32,0.00,CLR,,0.00,WeatherDisplay:10.37,2013-03-09 18:32:00,
2013-03-09 12:37:00,63.4,28.8,30.31,SSW,200,3.5,3.5,27,0.00,CLR,,0.00,WeatherDisplay:10.37,2013-03-09 18:37:00,
2013-03-09 12:42:00,63.9,33.4,30.31,SE,134,1.1,0.0,32,0.00,CLR,,0.00,WeatherDisplay:10.37,2013-03-09 18:42:00,
2013-03-09 12:47:00,64.8,33.4,30.30,SE,134,1.1,0.0,31,0.00,CLR,,0.00,WeatherDisplay:10.37,2013-03-09 18:47:00,
2013-03-09 12:53:00,64.5,30.6,30.30,ESE,116,3.5,3.5,28,0.00,CLR,,0.00,WeatherDisplay:10.37,2013-03-09 18:53:00,
2013-03-09 12:58:00,63.9,31.8,30.30,East,84,3.5,3.5,30,0.00,CLR,,0.00,WeatherDisplay:10.37,2013-03-09 18:58:00,
2013-03-09 13:03:00,63.5,31.5,30.30,WSW,246,5.8,5.8,30,0.00,CLR,,0.00,WeatherDisplay:10.37,2013-03-09 19:03:00,
2013-03-09 13:08:00,63.5,31.5,30.30,South,188,1.1,1.1,30,0.00,CLR,,0.00,WeatherDisplay:10.37,2013-03-09 19:08:00,
2013-03-09 13:13:00,63.5,31.5,30.30,South,177,3.5,3.5,30,0.00,CLR,,0.00,WeatherDisplay:10.37,2013-03-09 19:13:00,
2013-03-09 13:18:00,63.4,31.4,30.30,South,191,1.1,0.0,30,0.00,CLR,,0.00,WeatherDisplay:10.37,2013-03-09 19:18:00,
2013-03-09 13:23:00,63.4,31.4,30.30,WSW,240,1.1,1.1,30,0.00,CLR,,0.00,WeatherDisplay:10.37,2013-03-09 19:23:00,
2013-03-09 13:28:00,63.2,32.0,30.30,West,265,0.0,0.0,31,0.00,CLR,,0.00,WeatherDisplay:10.37,2013-03-09 19:28:00,
2013-03-09 13:33:00,63.2,31.2,30.30,West,265,1.0,0.0,30,0.00,CLR,,0.00,WeatherDisplay:10.37,2013-03-09 19:33:00,
2013-03-09 13:38:00,63.1,31.9,30.30,South,184,2.3,2.3,31,0.00,CLR,,0.00,WeatherDisplay:10.37,2013-03-09 19:38:00,
2013-03-09 13:43:00,62.9,31.8,30.30,SW,221,0.0,0.0,31,0.00,CLR,,0.00,WeatherDisplay:10.37,2013-03-09 19:43:00,
2013-03-09 13:48:00,62.9,31.0,30.30,SW,221,2.3,2.3,30,0.00,CLR,,0.00,WeatherDisplay:10.37,2013-03-09 19:48:00,
2013-03-09 13:53:00,62.9,31.8,30.30,SW,226,0.0,0.0,31,0.00,CLR,,0.00,WeatherDisplay:10.37,2013-03-09 19:53:00,
2013-03-09 13:58:00,62.9,31.8,30.30,SW,219,0.0,0.0,31,0.00,CLR,,0.00,WeatherDisplay:10.37,2013-03-09 19:58:00,
2013-03-09 14:03:00,62.9,31.0,30.29,SW,219,0.0,0.0,30,0.00,CLR,,0.00,WeatherDisplay:10.37,2013-03-09 20:03:00,
2013-03-09 14:08:00,62.9,31.8,30.29,SW,219,0.0,0.0,31,0.00,CLR,,0.00,WeatherDisplay:10.37,2013-03-09 20:08:00,
2013-03-09 14:13:00,62.9,31.8,30.29,SW,219,0.0,0.0,31,0.00,CLR,,0.00,WeatherDisplay:10.37,2013-03-09 20:13:00,
2013-03-09 14:18:00,62.9,31.8,30.29,SW,219,0.0,0.0,31,0.00,CLR,,0.00,WeatherDisplay:10.37,2013-03-09 20:18:00,
2013-03-09 14:23:00,63.1,31.9,30.28,SW,220,2.0,2.0,31,0.00,CLR,,0.00,WeatherDisplay:10.37,2013-03-09 20:23:00,
2013-03-09 14:28:00,63.2,32.0,30.28,SW,219,3.5,3.5,31,0.00,CLR,,0.00,WeatherDisplay:10.37,2013-03-09 20:28:00,
2013-03-09 14:33:00,63.2,31.2,30.28,SW,219,0.0,0.0,30,0.00,CLR,,0.00,WeatherDisplay:10.37,2013-03-09 20:33:00,
2013-03-09 14:38:00,63.4,32.2,30.28,SW,220,0.0,0.0,31,0.00,CLR,,0.00,WeatherDisplay:10.37,2013-03-09 20:38:00,
2013-03-09 14:43:00,63.4,32.2,30.28,SW,220,1.1,0.0,31,0.00,CLR,,0.00,WeatherDisplay:10.37,2013-03-09 20:43:00,
2013-03-09 14:48:00,63.4,31.4,30.28,South,188,3.5,3.5,30,0.00,CLR,,0.00,WeatherDisplay:10.37,2013-03-09 20:48:00,
2013-03-09 14:53:00,63.2,32.8,30.28,SSW,202,0.0,0.0,32,0.00,CLR,,0.00,WeatherDisplay:10.37,2013-03-09 20:53:00,
2013-03-09 14:58:00,63.1,32.7,30.28,SSW,204,1.1,1.1,32,0.00,CLR,,0.00,WeatherDisplay:10.37,2013-03-09 20:58:00,
2013-03-09 15:03:00,63.1,32.7,30.27,SSW,204,0.0,0.0,32,0.00,CLR,,0.00,WeatherDisplay:10.37,2013-03-09 21:03:00,
2013-03-09 15:08:00,63.1,34.3,30.28,SSW,204,0.0,0.0,34,0.00,CLR,,0.00,WeatherDisplay:10.37,2013-03-09 21:08:00,
2013-03-09 15:13:00,63.1,33.5,30.28,SSW,204,0.0,0.0,33,0.00,CLR,,0.00,WeatherDisplay:10.37,2013-03-09 21:13:00,
2013-03-09 15:18:00,63.1,32.7,30.28,SSW,204,0.0,0.0,32,0.00,CLR,,0.00,WeatherDisplay:10.37,2013-03-09 21:18:00,
2013-03-09 15:23:00,63.1,32.7,30.27,SSW,204,0.0,0.0,32,0.00,CLR,,0.00,WeatherDisplay:10.37,2013-03-09 21:23:00,
2013-03-09 15:28:00,63.2,32.8,30.27,SSW,204,0.0,0.0,32,0.00,CLR,,0.00,WeatherDisplay:10.37,2013-03-09 21:28:00,
2013-03-09 15:33:00,63.2,32.0,30.27,SSW,204,0.0,0.0,31,0.00,CLR,,0.00,WeatherDisplay:10.37,2013-03-09 21:33:00,
2013-03-09 15:38:00,63.4,33.0,30.27,SSW,204,0.0,0.0,32,0.00,CLR,,0.00,WeatherDisplay:10.37,2013-03-09 21:38:00,
2013-03-09 15:43:00,63.4,31.4,30.27,SSW,204,0.0,0.0,30,0.00,CLR,,0.00,WeatherDisplay:10.37,2013-03-09 21:43:00,
2013-03-09 15:48:00,63.4,32.2,30.26,SSW,204,0.0,0.0,31,0.00,CLR,,0.00,WeatherDisplay:10.37,2013-03-09 21:48:00,
2013-03-09 15:53:00,63.2,32.0,30.26,SSW,204,0.0,0.0,31,0.00,CLR,,0.00,WeatherDisplay:10.37,2013-03-09 21:53:00,
2013-03-09 15:58:00,63.2,32.8,30.26,SSW,204,1.1,0.0,32,0.00,CLR,,0.00,WeatherDisplay:10.37,2013-03-09 21:58:00,
2013-03-09 16:03:00,63.2,34.3,30.26,NNE,22,3.0,3.0,34,0.00,CLR,,0.00,WeatherDisplay:10.37,2013-03-09 22:03:00,
2013-03-09 16:08:00,63.1,31.9,30.25,NE,55,3.5,3.5,31,0.00,CLR,,0.00,WeatherDisplay:10.37,2013-03-09 22:08:00,
2013-03-09 16:13:00,62.7,33.9,30.25,NE,44,1.1,1.1,34,0.00,CLR,,0.00,WeatherDisplay:10.37,2013-03-09 22:13:00,
2013-03-09 16:18:00,62.4,32.9,30.25,ENE,63,0.0,0.0,33,0.00,CLR,,0.00,WeatherDisplay:10.37,2013-03-09 22:18:00,
2013-03-09 16:23:00,62.4,32.9,30.25,NE,51,2.3,2.3,33,0.00,CLR,,0.00,WeatherDisplay:10.37,2013-03-09 22:23:00,
2013-03-09 16:28:00,62.4,31.3,30.25,ENE,59,3.5,3.5,31,0.00,CLR,,0.00,WeatherDisplay:10.37,2013-03-09 22:28:00,
2013-03-09 16:33:00,62.6,33.8,30.25,NE,42,3.5,3.5,34,0.00,CLR,,0.00,WeatherDisplay:10.37,2013-03-09 22:33:00,
2013-03-09 16:38:00,62.7,33.2,30.25,East,94,1.1,1.1,33,0.00,CLR,,0.00,WeatherDisplay:10.37,2013-03-09 22:38:00,
2013-03-09 16:43:00,62.9,32.6,30.25,NNE,18,0.0,0.1,32,0.00,CLR,,0.00,WeatherDisplay:10.37,2013-03-09 22:43:00,
2013-03-09 16:48:00,62.9,31.8,30.25,NNE,18,0.0,0.0,31,0.00,CLR,,0.00,WeatherDisplay:10.37,2013-03-09 22:48:00,
2013-03-09 16:53:00,62.7,32.4,30.25,NNE,18,1.1,0.0,32,0.00,CLR,,0.00,WeatherDisplay:10.37,2013-03-09 22:53:00,
2013-03-09 16:58:00,62.6,32.3,30.25,SE,136,0.0,0.0,32,0.00,CLR,,0.00,WeatherDisplay:10.37,2013-03-09 22:58:00,
2013-03-09 17:03:00,62.3,32.0,30.25,SSW,210,0.0,0.0,32,0.00,CLR,,0.00,WeatherDisplay:10.37,2013-03-09 23:03:00,
2013-03-09 17:08:00,62.0,31.8,30.25,East,95,4.0,4.0,32,0.00,CLR,,0.00,WeatherDisplay:10.37,2013-03-09 23:08:00,
2013-03-09 17:13:00,61.6,32.2,30.25,East,80,1.1,1.1,33,0.00,CLR,,0.00,WeatherDisplay:10.37,2013-03-09 23:13:00,
2013-03-09 17:18:00,61.3,31.2,30.25,ESE,103,3.5,3.5,32,0.00,CLR,,0.00,WeatherDisplay:10.37,2013-03-09 23:18:00,
2013-03-09 17:23:00,61.2,31.8,30.26,ESE,104,0.0,0.0,33,0.00,CLR,,0.00,WeatherDisplay:10.37,2013-03-09 23:23:00,
2013-03-09 17:28:00,60.9,31.6,30.26,WSW,237,1.1,0.0,33,0.00,CLR,,0.00,WeatherDisplay:10.37,2013-03-09 23:28:00,
2013-03-09 17:33:00,60.5,32.7,30.26,WSW,237,0.0,0.0,35,0.00,CLR,,0.00,WeatherDisplay:10.37,2013-03-09 23:33:00,
2013-03-09 17:38:00,60.1,32.3,30.26,South,175,0.0,0.0,35,0.00,CLR,,0.00,WeatherDisplay:10.37,2013-03-09 23:38:00,
2013-03-09 17:43:00,59.8,32.1,30.26,South,175,0.0,0.0,35,0.00,CLR,,0.00,WeatherDisplay:10.37,2013-03-09 23:43:00,
2013-03-09 17:48:00,59.3,33.0,30.26,South,176,0.0,0.0,37,0.00,CLR,,0.00,WeatherDisplay:10.37,2013-03-09 23:48:00,
2013-03-09 17:53:00,58.9,33.3,30.26,South,176,0.0,0.0,38,0.00,CLR,,0.00,WeatherDisplay:10.37,2013-03-09 23:53:00,
2013-03-09 17:58:00,58.1,33.9,30.27,South,176,0.0,0.0,40,0.00,CLR,,0.00,WeatherDisplay:10.37,2013-03-09 23:58:00,
2013-03-09 18:03:00,57.5,34.0,30.27,South,177,0.0,0.0,41,0.00,CLR,,0.00,WeatherDisplay:10.37,2013-03-10 00:03:00,
2013-03-09 18:08:00,56.9,34.6,30.27,South,177,0.0,0.0,43,0.00,CLR,,0.00,WeatherDisplay:10.37,2013-03-10 00:08:00,
2013-03-09 18:13:00,56.3,35.2,30.27,South,177,0.0,0.0,45,0.00,CLR,,0.00,WeatherDisplay:10.37,2013-03-10 00:13:00,
2013-03-09 18:18:00,55.7,35.8,30.27,South,177,0.0,0.0,47,0.00,CLR,,0.00,WeatherDisplay:10.37,2013-03-10 00:18:00,
2013-03-09 18:23:00,55.0,35.7,30.27,South,177,0.0,0.0,48,0.00,CLR,,0.00,WeatherDisplay:10.37,2013-03-10 00:23:00,
2013-03-09 18:28:00,54.2,35.9,30.27,South,177,0.0,0.0,50,0.00,CLR,,0.00,WeatherDisplay:10.37,2013-03-10 00:28:00,
2013-03-09 18:33:00,53.6,36.4,30.27,South,177,0.0,0.0,52,0.00,CLR,,0.00,WeatherDisplay:10.37,2013-03-10 00:33:00,
2013-03-09 18:38:00,53.1,36.9,30.27,South,177,0.0,0.0,54,0.00,CLR,,0.00,WeatherDisplay:10.37,2013-03-10 00:38:00,
2013-03-09 18:43:00,52.6,35.9,30.27,South,179,0.0,0.0,53,0.00,CLR,,0.00,WeatherDisplay:10.37,2013-03-10 00:43:00,
2013-03-09 18:48:00,52.5,35.8,30.27,South,179,0.0,0.0,53,0.00,CLR,,0.00,WeatherDisplay:10.37,2013-03-10 00:48:00,
2013-03-09 18:53:00,52.3,35.7,30.27,South,179,0.0,0.0,53,0.00,CLR,,0.00,WeatherDisplay:10.37,2013-03-10 00:53:00,
2013-03-09 18:58:00,52.2,36.5,30.27,South,179,0.0,0.0,55,0.00,CLR,,0.00,WeatherDisplay:10.37,2013-03-10 00:58:00,
2013-03-09 19:03:00,52.0,36.8,30.27,South,179,0.0,0.0,56,0.00,CLR,,0.00,WeatherDisplay:10.37,2013-03-10 01:03:00,
2013-03-09 19:08:00,52.0,37.2,30.27,South,179,0.0,0.0,57,0.00,CLR,,0.00,WeatherDisplay:10.37,2013-03-10 01:08:00,
2013-03-09 19:13:00,51.9,37.1,30.26,South,179,0.0,0.0,57,0.00,CLR,,0.00,WeatherDisplay:10.37,2013-03-10 01:13:00,
2013-03-09 19:18:00,51.6,37.7,30.26,South,179,0.0,0.1,59,0.00,CLR,,0.00,WeatherDisplay:10.37,2013-03-10 01:18:00,
2013-03-09 19:23:00,51.1,37.3,30.26,South,179,0.0,0.0,59,0.00,CLR,,0.00,WeatherDisplay:10.37,2013-03-10 01:23:00,
2013-03-09 19:28:00,50.8,37.0,30.26,South,179,0.0,0.0,59,0.00,CLR,,0.00,WeatherDisplay:10.37,2013-03-10 01:28:00,
2013-03-09 19:33:00,50.4,37.0,30.26,South,179,0.0,0.0,60,0.00,CLR,,0.00,WeatherDisplay:10.37,2013-03-10 01:33:00,
2013-03-09 19:38:00,50.2,36.8,30.26,South,179,0.0,0.0,60,0.00,CLR,,0.00,WeatherDisplay:10.37,2013-03-10 01:38:00,
2013-03-09 19:43:00,49.9,37.0,30.26,South,179,0.0,0.0,61,0.00,CLR,,0.00,WeatherDisplay:10.37,2013-03-10 01:43:00,
2013-03-09 19:48:00,49.6,37.1,30.26,South,179,0.0,0.0,62,0.00,CLR,,0.00,WeatherDisplay:10.37,2013-03-10 01:48:00,
2013-03-09 19:53:00,49.5,37.0,30.26,South,179,0.0,0.0,62,0.00,CLR,,0.00,WeatherDisplay:10.37,2013-03-10 01:53:00,
2013-03-09 19:58:00,49.2,37.1,30.26,South,179,0.0,0.0,63,0.00,CLR,,0.00,WeatherDisplay:10.37,2013-03-10 01:58:00,
2013-03-09 20:03:00,49.2,37.5,30.26,South,179,0.0,0.0,64,0.00,CLR,,0.00,WeatherDisplay:10.37,2013-03-10 02:03:00,
2013-03-09 20:08:00,49.1,37.8,30.26,South,179,0.0,0.0,65,0.00,CLR,,0.00,WeatherDisplay:10.37,2013-03-10 02:08:00,
2013-03-09 20:13:00,49.1,38.2,30.26,South,179,0.0,0.0,66,0.00,CLR,,0.00,WeatherDisplay:10.37,2013-03-10 02:13:00,
2013-03-09 20:18:00,48.9,38.0,30.26,South,179,0.0,0.0,66,0.00,CLR,,0.00,WeatherDisplay:10.37,2013-03-10 02:18:00,
2013-03-09 20:23:00,48.8,38.3,30.26,South,179,0.0,0.0,67,0.00,CLR,,0.00,WeatherDisplay:10.37,2013-03-10 02:23:00,
2013-03-09 20:28:00,48.8,38.3,30.26,South,179,0.0,0.0,67,0.00,CLR,,0.00,WeatherDisplay:10.37,2013-03-10 02:28:00,
2013-03-09 20:33:00,48.6,38.1,30.26,South,179,0.0,0.0,67,0.00,CLR,,0.00,WeatherDisplay:10.37,2013-03-10 02:33:00,
2013-03-09 20:38:00,48.8,37.9,30.26,South,179,0.0,0.0,66,0.00,CLR,,0.00,WeatherDisplay:10.37,2013-03-10 02:38:00,
2013-03-09 20:43:00,48.8,38.3,30.26,South,179,0.0,0.0,67,0.00,CLR,,0.00,WeatherDisplay:10.37,2013-03-10 02:43:00,
2013-03-09 20:48:00,48.8,38.3,30.26,South,179,0.0,0.0,67,0.00,CLR,,0.00,WeatherDisplay:10.37,2013-03-10 02:48:00,
2013-03-09 20:53:00,48.8,38.3,30.26,South,179,0.0,0.0,67,0.00,CLR,,0.00,WeatherDisplay:10.37,2013-03-10 02:53:00,
2013-03-09 20:58:00,48.6,37.4,30.26,South,179,0.0,0.0,65,0.00,CLR,,0.00,WeatherDisplay:10.37,2013-03-10 02:58:00,
2013-03-09 21:03:00,48.6,37.4,30.27,South,179,0.0,0.0,65,0.00,CLR,,0.00,WeatherDisplay:10.37,2013-03-10 03:03:00,
2013-03-09 21:08:00,48.8,37.9,30.26,South,179,0.0,0.0,66,0.00,CLR,,0.00,WeatherDisplay:10.37,2013-03-10 03:08:00,
2013-03-09 21:13:00,48.6,37.7,30.26,South,179,0.0,0.0,66,0.00,CLR,,0.00,WeatherDisplay:10.37,2013-03-10 03:13:00,
2013-03-09 21:18:00,48.6,37.7,30.26,South,179,0.0,0.0,66,0.00,CLR,,0.00,WeatherDisplay:10.37,2013-03-10 03:18:00,
2013-03-09 21:23:00,48.6,38.1,30.26,South,179,0.0,0.0,67,0.00,CLR,,0.00,WeatherDisplay:10.37,2013-03-10 03:23:00,
2013-03-09 21:28:00,48.5,38.0,30.26,South,179,0.0,0.0,67,0.00,CLR,,0.00,WeatherDisplay:10.37,2013-03-10 03:28:00,
2013-03-09 21:33:00,48.3,37.8,30.26,South,179,0.0,0.0,67,0.00,CLR,,0.00,WeatherDisplay:10.37,2013-03-10 03:33:00,
2013-03-09 21:38:00,48.3,37.8,30.26,South,179,0.0,0.0,67,0.00,CLR,,0.00,WeatherDisplay:10.37,2013-03-10 03:38:00,
2013-03-09 21:43:00,48.2,38.1,30.26,South,179,0.0,0.0,68,0.00,CLR,,0.00,WeatherDisplay:10.37,2013-03-10 03:43:00,
2013-03-09 21:48:00,48.0,38.3,30.26,South,179,0.0,0.0,69,0.00,CLR,,0.00,WeatherDisplay:10.37,2013-03-10 03:48:00,
2013-03-09 21:53:00,47.7,38.0,30.25,South,179,0.0,0.0,69,0.00,CLR,,0.00,WeatherDisplay:10.37,2013-03-10 03:53:00,
2013-03-09 21:59:00,47.6,37.9,30.25,South,179,0.0,0.0,69,0.00,CLR,,0.00,WeatherDisplay:10.37,2013-03-10 03:59:00,
2013-03-09 22:04:00,47.6,38.3,30.25,South,179,0.0,0.0,70,0.00,CLR,,0.00,WeatherDisplay:10.37,2013-03-10 04:04:00,
2013-03-09 22:09:00,47.4,38.1,30.25,South,179,0.0,0.0,70,0.00,CLR,,0.00,WeatherDisplay:10.37,2013-03-10 04:09:00,
2013-03-09 22:14:00,47.4,38.1,30.24,South,179,0.0,0.0,70,0.00,CLR,,0.00,WeatherDisplay:10.37,2013-03-10 04:14:00,
2013-03-09 22:19:00,47.3,37.6,30.24,South,179,0.0,0.0,69,0.00,CLR,,0.00,WeatherDisplay:10.37,2013-03-10 04:19:00,
2013-03-09 22:24:00,47.4,38.1,30.24,South,179,1.1,1.1,70,0.00,CLR,,0.00,WeatherDisplay:10.37,2013-03-10 04:24:00,
2013-03-09 22:29:00,47.4,37.4,30.24,South,183,0.0,0.0,68,0.00,CLR,,0.00,WeatherDisplay:10.37,2013-03-10 04:29:00,
2013-03-09 22:34:00,47.6,37.9,30.24,WSW,248,1.1,0.0,69,0.00,CLR,,0.00,WeatherDisplay:10.37,2013-03-10 04:34:00,
2013-03-09 22:39:00,48.0,37.6,30.24,West,263,0.0,0.0,67,0.00,CLR,,0.00,WeatherDisplay:10.37,2013-03-10 04:39:00,
2013-03-09 22:44:00,48.2,37.8,30.23,West,263,0.0,0.0,67,0.00,CLR,,0.00,WeatherDisplay:10.37,2013-03-10 04:44:00,
2013-03-09 22:49:00,48.2,37.8,30.23,West,263,1.1,0.0,67,0.00,CLR,,0.00,WeatherDisplay:10.37,2013-03-10 04:49:00,
2013-03-09 22:54:00,48.3,37.8,30.23,West,265,0.0,0.0,67,0.00,CLR,,0.00,WeatherDisplay:10.37,2013-03-10 04:54:00,
2013-03-09 22:59:00,48.3,37.8,30.23,West,265,0.0,0.0,67,0.00,CLR,,0.00,WeatherDisplay:10.37,2013-03-10 04:59:00,
2013-03-09 23:00:00,48.3,37.8,30.23,West,265,0.0,0.0,67,0.00,CLR,,0.00,WeatherDisplay:10.37,2013-03-10 05:00:00,
2013-03-09 23:06:00,48.5,37.3,30.23,West,265,0.0,0.0,65,0.00,CLR,,0.00,WeatherDisplay:10.37,2013-03-10 05:06:00,
2013-03-09 23:11:00,48.6,36.6,30.23,West,265,0.0,0.0,63,0.00,CLR,,0.00,WeatherDisplay:10.37,2013-03-10 05:11:00,
2013-03-09 23:16:00,49.1,37.8,30.23,West,265,0.0,0.0,65,0.00,CLR,,0.00,WeatherDisplay:10.37,2013-03-10 05:16:00,
2013-03-09 23:21:00,49.1,37.8,30.23,West,265,0.0,0.0,65,0.00,CLR,,0.00,WeatherDisplay:10.37,2013-03-10 05:21:00,
2013-03-09 23:26:00,48.9,37.3,30.23,West,265,1.1,0.0,64,0.00,CLR,,0.00,WeatherDisplay:10.37,2013-03-10 05:26:00,
2013-03-09 23:31:00,48.9,36.9,30.23,West,265,0.0,0.0,63,0.00,CLR,,0.00,WeatherDisplay:10.37,2013-03-10 05:31:00,
2013-03-09 23:36:00,48.9,37.3,30.22,West,265,0.0,0.0,64,0.00,CLR,,0.00,WeatherDisplay:10.37,2013-03-10 05:36:00,
2013-03-09 23:41:00,48.8,37.2,30.22,West,265,0.0,0.0,64,0.00,CLR,,0.00,WeatherDisplay:10.37,2013-03-10 05:41:00,
2013-03-09 23:46:00,48.6,37.0,30.22,West,265,0.0,0.0,64,0.00,CLR,,0.00,WeatherDisplay:10.37,2013-03-10 05:46:00,
2013-03-09 23:51:00,48.5,36.9,30.22,West,265,0.0,0.0,64,0.00,CLR,,0.00,WeatherDisplay:10.37,2013-03-10 05:51:00,
2013-03-09 23:56:00,48.5,36.9,30.22,West,265,0.0,0.0,64,0.00,CLR,,0.00,WeatherDisplay:10.37,2013-03-10 05:56:00,